sensor_id;sensor_type;location;lat;lon;timestamp;temperature;humidity
11454;DHT22;5783;55.174;61.310;2022-09-09T00:05:37;20.90;45.80
11454;DHT22;5783;55.174;61.310;2022-09-09T00:08:06;20.90;45.70
11454;DHT22;5783;55.174;61.310;2022-09-09T00:16:35;20.90;45.60
11454;DHT22;5783;55.174;61.310;2022-09-09T00:19:11;20.90;45.70
11454;DHT22;5783;55.174;61.310;2022-09-09T00:21:43;20.90;46.00
11454;DHT22;5783;55.174;61.310;2022-09-09T00:24:32;20.90;46.00
11454;DHT22;5783;55.174;61.310;2022-09-09T00:30:29;20.90;46.20
11454;DHT22;5783;55.174;61.310;2022-09-09T00:32:28;20.90;46.30
11454;DHT22;5783;55.174;61.310;2022-09-09T00:35:02;20.90;46.30
11454;DHT22;5783;55.174;61.310;2022-09-09T00:37:32;20.90;46.20
11454;DHT22;5783;55.174;61.310;2022-09-09T00:40:05;21.00;46.20
11454;DHT22;5783;55.174;61.310;2022-09-09T00:52:04;21.00;46.00
11454;DHT22;5783;55.174;61.310;2022-09-09T01:06:33;20.90;45.60
11454;DHT22;5783;55.174;61.310;2022-09-09T01:09:26;20.90;46.20
11454;DHT22;5783;55.174;61.310;2022-09-09T01:12:15;20.90;45.50
11454;DHT22;5783;55.174;61.310;2022-09-09T01:18:15;20.80;45.50
11454;DHT22;5783;55.174;61.310;2022-09-09T01:21:07;20.70;45.50
11454;DHT22;5783;55.174;61.310;2022-09-09T01:26:45;20.70;45.60
11454;DHT22;5783;55.174;61.310;2022-09-09T01:29:16;20.70;45.70
11454;DHT22;5783;55.174;61.310;2022-09-09T01:34:54;20.70;45.90
11454;DHT22;5783;55.174;61.310;2022-09-09T01:37:23;20.80;46.20
11454;DHT22;5783;55.174;61.310;2022-09-09T01:39:52;20.80;46.30
11454;DHT22;5783;55.174;61.310;2022-09-09T01:42:21;20.80;46.30
11454;DHT22;5783;55.174;61.310;2022-09-09T01:44:52;20.90;46.20
11454;DHT22;5783;55.174;61.310;2022-09-09T01:47:21;20.90;46.20
11454;DHT22;5783;55.174;61.310;2022-09-09T01:49:51;20.90;46.20
11454;DHT22;5783;55.174;61.310;2022-09-09T01:52:20;21.00;46.10
11454;DHT22;5783;55.174;61.310;2022-09-09T01:54:50;21.00;46.00
11454;DHT22;5783;55.174;61.310;2022-09-09T02:00:12;21.00;45.90
11454;DHT22;5783;55.174;61.310;2022-09-09T02:02:47;21.00;45.90
11454;DHT22;5783;55.174;61.310;2022-09-09T02:05:53;21.00;46.00
11454;DHT22;5783;55.174;61.310;2022-09-09T02:07:50;20.90;46.00
11454;DHT22;5783;55.174;61.310;2022-09-09T02:19:30;20.90;45.80
11454;DHT22;5783;55.174;61.310;2022-09-09T02:22:00;20.80;45.50
11454;DHT22;5783;55.174;61.310;2022-09-09T02:24:33;20.80;45.50
11454;DHT22;5783;55.174;61.310;2022-09-09T02:27:05;20.80;45.50
11454;DHT22;5783;55.174;61.310;2022-09-09T02:29:38;20.80;45.60
11454;DHT22;5783;55.174;61.310;2022-09-09T02:35:20;20.80;45.60
11454;DHT22;5783;55.174;61.310;2022-09-09T02:37:53;20.80;45.60
11454;DHT22;5783;55.174;61.310;2022-09-09T02:40:22;20.80;45.70
11454;DHT22;5783;55.174;61.310;2022-09-09T02:42:51;20.80;45.50
11454;DHT22;5783;55.174;61.310;2022-09-09T02:46:19;20.90;45.50
11454;DHT22;5783;55.174;61.310;2022-09-09T02:49:08;20.90;45.50
11454;DHT22;5783;55.174;61.310;2022-09-09T02:59:21;21.00;45.80
11454;DHT22;5783;55.174;61.310;2022-09-09T03:01:51;21.10;45.90
11454;DHT22;5783;55.174;61.310;2022-09-09T03:04:20;21.10;45.90
11454;DHT22;5783;55.174;61.310;2022-09-09T03:06:51;21.10;45.90
11454;DHT22;5783;55.174;61.310;2022-09-09T03:09:20;21.10;45.90
11454;DHT22;5783;55.174;61.310;2022-09-09T03:11:49;21.10;45.90
11454;DHT22;5783;55.174;61.310;2022-09-09T03:14:19;21.10;45.90
11454;DHT22;5783;55.174;61.310;2022-09-09T03:16:50;21.20;45.80
11454;DHT22;5783;55.174;61.310;2022-09-09T03:19:19;21.10;45.80
11454;DHT22;5783;55.174;61.310;2022-09-09T03:21:49;21.10;45.60
11454;DHT22;5783;55.174;61.310;2022-09-09T03:24:18;21.10;45.50
11454;DHT22;5783;55.174;61.310;2022-09-09T03:26:48;21.10;45.40
11454;DHT22;5783;55.174;61.310;2022-09-09T03:29:17;21.10;45.40
11454;DHT22;5783;55.174;61.310;2022-09-09T03:31:46;21.10;45.30
11454;DHT22;5783;55.174;61.310;2022-09-09T03:34:17;21.10;45.20
11454;DHT22;5783;55.174;61.310;2022-09-09T03:36:46;21.10;45.20
11454;DHT22;5783;55.174;61.310;2022-09-09T03:39:15;21.10;45.20
11454;DHT22;5783;55.174;61.310;2022-09-09T03:41:45;21.10;45.10
11454;DHT22;5783;55.174;61.310;2022-09-09T03:44:14;21.10;45.30
11454;DHT22;5783;55.174;61.310;2022-09-09T03:46:44;21.10;45.10
11454;DHT22;5783;55.174;61.310;2022-09-09T03:49:13;21.10;45.10
11454;DHT22;5783;55.174;61.310;2022-09-09T03:51:43;21.10;45.30
11454;DHT22;5783;55.174;61.310;2022-09-09T03:54:12;21.20;45.20
11454;DHT22;5783;55.174;61.310;2022-09-09T03:56:41;21.10;45.20
11454;DHT22;5783;55.174;61.310;2022-09-09T03:59:10;21.20;45.30
11454;DHT22;5783;55.174;61.310;2022-09-09T04:01:40;21.10;45.20
11454;DHT22;5783;55.174;61.310;2022-09-09T04:04:10;21.10;45.30
11454;DHT22;5783;55.174;61.310;2022-09-09T04:06:39;21.20;45.40
11454;DHT22;5783;55.174;61.310;2022-09-09T04:09:08;21.20;45.60
11454;DHT22;5783;55.174;61.310;2022-09-09T04:11:37;21.20;45.40
11454;DHT22;5783;55.174;61.310;2022-09-09T04:14:06;21.20;45.40
11454;DHT22;5783;55.174;61.310;2022-09-09T04:16:35;21.20;45.40
11454;DHT22;5783;55.174;61.310;2022-09-09T04:19:05;21.20;45.50
11454;DHT22;5783;55.174;61.310;2022-09-09T04:21:34;21.20;45.50
11454;DHT22;5783;55.174;61.310;2022-09-09T04:24:03;21.20;45.70
11454;DHT22;5783;55.174;61.310;2022-09-09T04:26:33;21.20;45.70
11454;DHT22;5783;55.174;61.310;2022-09-09T04:29:04;21.30;45.70
11454;DHT22;5783;55.174;61.310;2022-09-09T04:31:34;21.30;45.70
11454;DHT22;5783;55.174;61.310;2022-09-09T04:34:06;21.30;45.70
11454;DHT22;5783;55.174;61.310;2022-09-09T04:36:35;21.30;45.50
11454;DHT22;5783;55.174;61.310;2022-09-09T04:39:23;21.40;45.50
11454;DHT22;5783;55.174;61.310;2022-09-09T04:41:52;21.30;45.40
11454;DHT22;5783;55.174;61.310;2022-09-09T04:44:22;21.30;45.40
11454;DHT22;5783;55.174;61.310;2022-09-09T04:46:51;21.30;45.40
11454;DHT22;5783;55.174;61.310;2022-09-09T04:49:20;21.20;45.60
11454;DHT22;5783;55.174;61.310;2022-09-09T04:51:50;21.10;45.50
11454;DHT22;5783;55.174;61.310;2022-09-09T04:54:19;21.00;45.50
11454;DHT22;5783;55.174;61.310;2022-09-09T04:56:50;20.90;45.70
11454;DHT22;5783;55.174;61.310;2022-09-09T04:59:19;20.90;45.90
11454;DHT22;5783;55.174;61.310;2022-09-09T05:01:49;20.90;45.90
11454;DHT22;5783;55.174;61.310;2022-09-09T05:04:18;20.90;45.90
11454;DHT22;5783;55.174;61.310;2022-09-09T05:06:47;20.90;45.80
11454;DHT22;5783;55.174;61.310;2022-09-09T05:09:16;21.00;45.80
11454;DHT22;5783;55.174;61.310;2022-09-09T05:11:45;21.20;45.30
11454;DHT22;5783;55.174;61.310;2022-09-09T05:14:15;21.20;44.80
11454;DHT22;5783;55.174;61.310;2022-09-09T05:17:04;21.20;44.60
11454;DHT22;5783;55.174;61.310;2022-09-09T05:19:33;21.30;44.40
11454;DHT22;5783;55.174;61.310;2022-09-09T05:22:03;21.30;44.20
11454;DHT22;5783;55.174;61.310;2022-09-09T05:24:32;21.40;44.10
11454;DHT22;5783;55.174;61.310;2022-09-09T05:27:03;21.30;44.00
11454;DHT22;5783;55.174;61.310;2022-09-09T05:29:33;21.30;43.90
11454;DHT22;5783;55.174;61.310;2022-09-09T05:32:03;21.30;43.90
11454;DHT22;5783;55.174;61.310;2022-09-09T05:34:32;21.30;43.90
11454;DHT22;5783;55.174;61.310;2022-09-09T05:37:01;21.30;43.90
11454;DHT22;5783;55.174;61.310;2022-09-09T05:39:31;21.30;44.00
11454;DHT22;5783;55.174;61.310;2022-09-09T05:42:00;21.20;44.00
11454;DHT22;5783;55.174;61.310;2022-09-09T05:44:31;21.30;44.10
11454;DHT22;5783;55.174;61.310;2022-09-09T05:47:00;21.30;44.10
11454;DHT22;5783;55.174;61.310;2022-09-09T05:49:29;21.30;44.00
11454;DHT22;5783;55.174;61.310;2022-09-09T05:51:58;21.30;44.20
11454;DHT22;5783;55.174;61.310;2022-09-09T05:54:29;21.30;44.20
11454;DHT22;5783;55.174;61.310;2022-09-09T05:56:59;21.30;44.10
11454;DHT22;5783;55.174;61.310;2022-09-09T05:59:28;21.30;43.80
11454;DHT22;5783;55.174;61.310;2022-09-09T06:01:58;21.30;43.80
11454;DHT22;5783;55.174;61.310;2022-09-09T06:04:27;21.30;43.50
11454;DHT22;5783;55.174;61.310;2022-09-09T06:06:57;21.30;43.50
11454;DHT22;5783;55.174;61.310;2022-09-09T06:09:26;21.30;43.30
11454;DHT22;5783;55.174;61.310;2022-09-09T06:11:57;21.30;43.40
11454;DHT22;5783;55.174;61.310;2022-09-09T06:14:26;21.20;43.40
11454;DHT22;5783;55.174;61.310;2022-09-09T06:16:55;21.20;43.20
11454;DHT22;5783;55.174;61.310;2022-09-09T06:19:24;21.20;43.40
11454;DHT22;5783;55.174;61.310;2022-09-09T06:21:53;21.20;43.30
11454;DHT22;5783;55.174;61.310;2022-09-09T06:24:22;21.20;43.20
11454;DHT22;5783;55.174;61.310;2022-09-09T06:26:51;21.30;43.10
11454;DHT22;5783;55.174;61.310;2022-09-09T06:29:20;21.20;43.10
11454;DHT22;5783;55.174;61.310;2022-09-09T06:31:49;21.20;43.20
11454;DHT22;5783;55.174;61.310;2022-09-09T06:34:20;21.20;43.10
11454;DHT22;5783;55.174;61.310;2022-09-09T06:36:49;21.30;43.10
11454;DHT22;5783;55.174;61.310;2022-09-09T06:39:18;21.30;43.20
11454;DHT22;5783;55.174;61.310;2022-09-09T06:41:48;21.30;43.30
11454;DHT22;5783;55.174;61.310;2022-09-09T06:44:19;21.30;43.30
11454;DHT22;5783;55.174;61.310;2022-09-09T06:46:49;21.30;43.30
11454;DHT22;5783;55.174;61.310;2022-09-09T06:49:18;21.40;42.60
11454;DHT22;5783;55.174;61.310;2022-09-09T06:51:49;21.40;42.70
11454;DHT22;5783;55.174;61.310;2022-09-09T06:54:19;21.40;42.70
11454;DHT22;5783;55.174;61.310;2022-09-09T06:56:49;21.40;42.40
11454;DHT22;5783;55.174;61.310;2022-09-09T06:59:21;21.40;42.10
11454;DHT22;5783;55.174;61.310;2022-09-09T07:01:51;21.40;42.00
11454;DHT22;5783;55.174;61.310;2022-09-09T07:04:21;21.40;42.00
11454;DHT22;5783;55.174;61.310;2022-09-09T07:06:50;21.40;42.00
11454;DHT22;5783;55.174;61.310;2022-09-09T07:09:20;21.50;42.10
11454;DHT22;5783;55.174;61.310;2022-09-09T07:11:51;21.50;42.10
11454;DHT22;5783;55.174;61.310;2022-09-09T07:14:20;21.50;42.20
11454;DHT22;5783;55.174;61.310;2022-09-09T07:16:49;21.50;42.20
11454;DHT22;5783;55.174;61.310;2022-09-09T07:19:18;21.50;42.30
11454;DHT22;5783;55.174;61.310;2022-09-09T07:21:48;21.50;42.50
11454;DHT22;5783;55.174;61.310;2022-09-09T07:24:17;21.50;42.20
11454;DHT22;5783;55.174;61.310;2022-09-09T07:26:47;21.50;42.30
11454;DHT22;5783;55.174;61.310;2022-09-09T07:29:16;21.50;42.00
11454;DHT22;5783;55.174;61.310;2022-09-09T07:31:45;21.50;42.10
11454;DHT22;5783;55.174;61.310;2022-09-09T07:34:15;21.50;41.80
11454;DHT22;5783;55.174;61.310;2022-09-09T07:36:45;21.50;42.10
11454;DHT22;5783;55.174;61.310;2022-09-09T07:39:15;21.50;42.20
11454;DHT22;5783;55.174;61.310;2022-09-09T07:41:46;21.50;42.80
11454;DHT22;5783;55.174;61.310;2022-09-09T07:44:19;21.50;43.00
11454;DHT22;5783;55.174;61.310;2022-09-09T07:46:49;21.50;42.80
11454;DHT22;5783;55.174;61.310;2022-09-09T07:49:19;21.50;42.60
11454;DHT22;5783;55.174;61.310;2022-09-09T07:51:51;21.50;42.80
11454;DHT22;5783;55.174;61.310;2022-09-09T07:54:21;21.50;43.10
11454;DHT22;5783;55.174;61.310;2022-09-09T07:56:51;21.50;42.70
11454;DHT22;5783;55.174;61.310;2022-09-09T07:59:21;21.50;42.50
11454;DHT22;5783;55.174;61.310;2022-09-09T08:01:51;21.50;42.90
11454;DHT22;5783;55.174;61.310;2022-09-09T08:04:22;21.50;43.50
11454;DHT22;5783;55.174;61.310;2022-09-09T08:09:43;21.50;44.00
11454;DHT22;5783;55.174;61.310;2022-09-09T08:12:13;21.50;43.40
11454;DHT22;5783;55.174;61.310;2022-09-09T08:14:43;21.50;44.00
11454;DHT22;5783;55.174;61.310;2022-09-09T08:17:31;21.50;43.90
11454;DHT22;5783;55.174;61.310;2022-09-09T08:20:00;21.50;44.90
11454;DHT22;5783;55.174;61.310;2022-09-09T08:22:31;21.50;44.80
11454;DHT22;5783;55.174;61.310;2022-09-09T08:25:00;21.50;44.80
11454;DHT22;5783;55.174;61.310;2022-09-09T08:27:32;21.50;45.10
11454;DHT22;5783;55.174;61.310;2022-09-09T08:30:01;21.50;45.40
11454;DHT22;5783;55.174;61.310;2022-09-09T08:32:31;21.50;45.20
11454;DHT22;5783;55.174;61.310;2022-09-09T08:35:01;21.50;45.00
11454;DHT22;5783;55.174;61.310;2022-09-09T08:37:31;21.50;45.30
11454;DHT22;5783;55.174;61.310;2022-09-09T08:40:00;21.60;45.40
11454;DHT22;5783;55.174;61.310;2022-09-09T08:42:51;21.60;45.40
11454;DHT22;5783;55.174;61.310;2022-09-09T08:51:01;21.60;45.80
11454;DHT22;5783;55.174;61.310;2022-09-09T08:53:53;21.70;45.70
11454;DHT22;5783;55.174;61.310;2022-09-09T08:56:24;21.70;45.80
11454;DHT22;5783;55.174;61.310;2022-09-09T08:58:56;21.80;45.40
11454;DHT22;5783;55.174;61.310;2022-09-09T09:01:32;21.80;45.40
11454;DHT22;5783;55.174;61.310;2022-09-09T09:12:48;21.90;43.50
11454;DHT22;5783;55.174;61.310;2022-09-09T09:15:21;21.80;43.40
11454;DHT22;5783;55.174;61.310;2022-09-09T09:17:50;21.90;43.30
11454;DHT22;5783;55.174;61.310;2022-09-09T09:23:13;21.90;42.60
11454;DHT22;5783;55.174;61.310;2022-09-09T09:25:42;21.90;42.10
11454;DHT22;5783;55.174;61.310;2022-09-09T09:31:06;21.90;40.70
11454;DHT22;5783;55.174;61.310;2022-09-09T09:33:55;21.90;40.90
11454;DHT22;5783;55.174;61.310;2022-09-09T09:39:35;21.90;40.20
11454;DHT22;5783;55.174;61.310;2022-09-09T09:42:25;21.80;39.70
11454;DHT22;5783;55.174;61.310;2022-09-09T09:44:56;21.80;39.60
11454;DHT22;5783;55.174;61.310;2022-09-09T09:47:26;21.80;39.90
11454;DHT22;5783;55.174;61.310;2022-09-09T09:49:58;21.80;40.60
11454;DHT22;5783;55.174;61.310;2022-09-09T09:52:31;21.80;40.20
11454;DHT22;5783;55.174;61.310;2022-09-09T09:55:04;21.80;40.00
11454;DHT22;5783;55.174;61.310;2022-09-09T09:57:34;21.80;40.30
11454;DHT22;5783;55.174;61.310;2022-09-09T10:02:55;21.80;40.90
11454;DHT22;5783;55.174;61.310;2022-09-09T10:05:28;21.70;41.10
11454;DHT22;5783;55.174;61.310;2022-09-09T10:08:17;21.70;40.60
11454;DHT22;5783;55.174;61.310;2022-09-09T10:10:51;21.60;41.10
11454;DHT22;5783;55.174;61.310;2022-09-09T10:36:46;21.00;48.50
11454;DHT22;5783;55.174;61.310;2022-09-09T10:42:26;21.00;49.20
11454;DHT22;5783;55.174;61.310;2022-09-09T10:45:17;21.10;49.70
11454;DHT22;5783;55.174;61.310;2022-09-09T11:00:10;21.20;50.90
11454;DHT22;5783;55.174;61.310;2022-09-09T11:02:37;21.20;51.30
11454;DHT22;5783;55.174;61.310;2022-09-09T11:08:38;21.30;50.70
11454;DHT22;5783;55.174;61.310;2022-09-09T11:11:29;21.30;50.30
11454;DHT22;5783;55.174;61.310;2022-09-09T11:16:52;21.30;49.60
11454;DHT22;5783;55.174;61.310;2022-09-09T11:19:26;21.30;49.50
11454;DHT22;5783;55.174;61.310;2022-09-09T11:21:56;21.30;49.60
11454;DHT22;5783;55.174;61.310;2022-09-09T11:39:36;21.30;50.80
11454;DHT22;5783;55.174;61.310;2022-09-09T11:42:26;21.40;50.40
11454;DHT22;5783;55.174;61.310;2022-09-09T11:44:55;21.40;50.00
11454;DHT22;5783;55.174;61.310;2022-09-09T11:47:27;21.40;49.50
11454;DHT22;5783;55.174;61.310;2022-09-09T11:52:49;21.40;48.90
11454;DHT22;5783;55.174;61.310;2022-09-09T11:55:39;21.50;48.70
11454;DHT22;5783;55.174;61.310;2022-09-09T11:58:28;21.50;48.90
11454;DHT22;5783;55.174;61.310;2022-09-09T12:00:59;21.50;48.40
11454;DHT22;5783;55.174;61.310;2022-09-09T12:03:50;21.40;48.00
11454;DHT22;5783;55.174;61.310;2022-09-09T12:09:33;21.40;47.50
11454;DHT22;5783;55.174;61.310;2022-09-09T12:17:46;21.40;46.30
11454;DHT22;5783;55.174;61.310;2022-09-09T12:23:30;21.40;47.10
11454;DHT22;5783;55.174;61.310;2022-09-09T12:32:17;21.40;45.80
11454;DHT22;5783;55.174;61.310;2022-09-09T12:35:27;21.40;45.70
11454;DHT22;5783;55.174;61.310;2022-09-09T12:41:15;21.40;45.40
11454;DHT22;5783;55.174;61.310;2022-09-09T12:43:37;21.30;45.30
11454;DHT22;5783;55.174;61.310;2022-09-09T12:48:59;21.30;45.00
11454;DHT22;5783;55.174;61.310;2022-09-09T12:51:31;21.30;45.50
11454;DHT22;5783;55.174;61.310;2022-09-09T12:54:02;21.30;45.80
11454;DHT22;5783;55.174;61.310;2022-09-09T12:56:33;21.30;46.40
11454;DHT22;5783;55.174;61.310;2022-09-09T12:59:02;21.30;46.40
11454;DHT22;5783;55.174;61.310;2022-09-09T13:01:32;21.30;46.40
11454;DHT22;5783;55.174;61.310;2022-09-09T13:04:02;21.30;46.40
11454;DHT22;5783;55.174;61.310;2022-09-09T13:06:32;21.30;46.50
11454;DHT22;5783;55.174;61.310;2022-09-09T13:09:02;21.20;46.60
11454;DHT22;5783;55.174;61.310;2022-09-09T13:11:52;21.20;46.70
11454;DHT22;5783;55.174;61.310;2022-09-09T13:17:17;21.20;46.60
11454;DHT22;5783;55.174;61.310;2022-09-09T13:19:45;21.20;46.90
11454;DHT22;5783;55.174;61.310;2022-09-09T13:22:37;21.20;47.00
11454;DHT22;5783;55.174;61.310;2022-09-09T13:25:27;21.10;47.10
11454;DHT22;5783;55.174;61.310;2022-09-09T13:28:00;21.20;47.60
11454;DHT22;5783;55.174;61.310;2022-09-09T13:30:32;21.10;47.70
11454;DHT22;5783;55.174;61.310;2022-09-09T13:33:17;21.10;47.60
11454;DHT22;5783;55.174;61.310;2022-09-09T13:38:28;21.10;47.70
11454;DHT22;5783;55.174;61.310;2022-09-09T13:43:50;21.10;47.50
11454;DHT22;5783;55.174;61.310;2022-09-09T13:46:41;21.00;47.40
11454;DHT22;5783;55.174;61.310;2022-09-09T13:51:46;21.00;47.40
11454;DHT22;5783;55.174;61.310;2022-09-09T13:54:18;21.00;47.40
11454;DHT22;5783;55.174;61.310;2022-09-09T13:56:49;21.00;47.40
11454;DHT22;5783;55.174;61.310;2022-09-09T13:59:19;21.00;47.40
11454;DHT22;5783;55.174;61.310;2022-09-09T14:01:50;21.00;47.50
11454;DHT22;5783;55.174;61.310;2022-09-09T14:04:20;21.00;47.50
11454;DHT22;5783;55.174;61.310;2022-09-09T14:06:50;21.00;47.50
11454;DHT22;5783;55.174;61.310;2022-09-09T14:09:19;21.00;47.90
11454;DHT22;5783;55.174;61.310;2022-09-09T14:11:48;21.00;48.50
11454;DHT22;5783;55.174;61.310;2022-09-09T14:14:18;21.00;48.50
11454;DHT22;5783;55.174;61.310;2022-09-09T14:16:47;21.00;48.90
11454;DHT22;5783;55.174;61.310;2022-09-09T14:19:16;21.00;49.00
11454;DHT22;5783;55.174;61.310;2022-09-09T14:21:45;20.90;49.20
11454;DHT22;5783;55.174;61.310;2022-09-09T14:24:15;21.00;49.60
11454;DHT22;5783;55.174;61.310;2022-09-09T14:26:44;20.90;49.70
11454;DHT22;5783;55.174;61.310;2022-09-09T14:29:14;20.90;49.80
11454;DHT22;5783;55.174;61.310;2022-09-09T14:31:43;20.90;50.00
11454;DHT22;5783;55.174;61.310;2022-09-09T14:34:13;20.90;50.00
11454;DHT22;5783;55.174;61.310;2022-09-09T14:36:42;21.00;50.10
11454;DHT22;5783;55.174;61.310;2022-09-09T14:39:12;21.00;49.50
11454;DHT22;5783;55.174;61.310;2022-09-09T14:41:41;21.00;48.90
11454;DHT22;5783;55.174;61.310;2022-09-09T14:44:12;20.90;49.10
11454;DHT22;5783;55.174;61.310;2022-09-09T14:46:42;20.90;48.70
11454;DHT22;5783;55.174;61.310;2022-09-09T14:49:11;20.90;48.70
11454;DHT22;5783;55.174;61.310;2022-09-09T14:51:40;20.90;48.70
11454;DHT22;5783;55.174;61.310;2022-09-09T14:54:10;20.90;48.50
11454;DHT22;5783;55.174;61.310;2022-09-09T14:56:39;20.90;48.30
11454;DHT22;5783;55.174;61.310;2022-09-09T14:59:08;20.80;48.00
11454;DHT22;5783;55.174;61.310;2022-09-09T15:01:37;20.80;48.40
11454;DHT22;5783;55.174;61.310;2022-09-09T15:04:06;20.80;48.70
11454;DHT22;5783;55.174;61.310;2022-09-09T15:06:37;20.90;48.80
11454;DHT22;5783;55.174;61.310;2022-09-09T15:09:08;20.90;48.80
11454;DHT22;5783;55.174;61.310;2022-09-09T15:11:38;20.90;48.70
11454;DHT22;5783;55.174;61.310;2022-09-09T15:14:09;20.90;48.60
11454;DHT22;5783;55.174;61.310;2022-09-09T15:16:40;20.90;48.20
11454;DHT22;5783;55.174;61.310;2022-09-09T15:19:10;20.90;48.40
11454;DHT22;5783;55.174;61.310;2022-09-09T15:21:39;20.90;48.50
11454;DHT22;5783;55.174;61.310;2022-09-09T15:24:08;20.90;48.50
11454;DHT22;5783;55.174;61.310;2022-09-09T15:26:37;20.90;48.50
11454;DHT22;5783;55.174;61.310;2022-09-09T15:29:07;20.90;48.30
11454;DHT22;5783;55.174;61.310;2022-09-09T15:31:36;20.90;48.30
11454;DHT22;5783;55.174;61.310;2022-09-09T15:36:55;20.90;48.20
11454;DHT22;5783;55.174;61.310;2022-09-09T15:39:26;20.90;48.20
11454;DHT22;5783;55.174;61.310;2022-09-09T15:41:55;20.90;48.20
11454;DHT22;5783;55.174;61.310;2022-09-09T15:44:27;20.90;48.10
11454;DHT22;5783;55.174;61.310;2022-09-09T15:46:56;20.90;48.10
11454;DHT22;5783;55.174;61.310;2022-09-09T15:49:26;21.00;48.20
11454;DHT22;5783;55.174;61.310;2022-09-09T15:51:58;21.00;48.10
11454;DHT22;5783;55.174;61.310;2022-09-09T15:54:31;21.00;48.20
11454;DHT22;5783;55.174;61.310;2022-09-09T15:57:03;21.00;48.10
11454;DHT22;5783;55.174;61.310;2022-09-09T15:59:32;21.10;47.80
11454;DHT22;5783;55.174;61.310;2022-09-09T16:02:02;21.10;47.80
11454;DHT22;5783;55.174;61.310;2022-09-09T16:04:31;21.10;47.80
11454;DHT22;5783;55.174;61.310;2022-09-09T16:07:02;21.10;48.00
11454;DHT22;5783;55.174;61.310;2022-09-09T16:09:33;21.10;47.80
11454;DHT22;5783;55.174;61.310;2022-09-09T16:12:04;21.10;47.80
11454;DHT22;5783;55.174;61.310;2022-09-09T16:14:34;21.10;47.70
11454;DHT22;5783;55.174;61.310;2022-09-09T16:17:06;21.10;47.60
11454;DHT22;5783;55.174;61.310;2022-09-09T16:19:35;21.10;47.60
11454;DHT22;5783;55.174;61.310;2022-09-09T16:22:04;21.10;47.60
11454;DHT22;5783;55.174;61.310;2022-09-09T16:24:35;21.10;47.70
11454;DHT22;5783;55.174;61.310;2022-09-09T16:27:05;21.10;47.60
11454;DHT22;5783;55.174;61.310;2022-09-09T16:29:34;21.10;47.60
11454;DHT22;5783;55.174;61.310;2022-09-09T16:32:03;21.20;47.60
11454;DHT22;5783;55.174;61.310;2022-09-09T16:34:32;21.20;47.50
11454;DHT22;5783;55.174;61.310;2022-09-09T16:37:01;21.20;47.50
11454;DHT22;5783;55.174;61.310;2022-09-09T16:39:30;21.20;47.40
11454;DHT22;5783;55.174;61.310;2022-09-09T16:42:00;21.20;47.30
11454;DHT22;5783;55.174;61.310;2022-09-09T16:44:30;21.20;47.30
11454;DHT22;5783;55.174;61.310;2022-09-09T16:47:00;21.20;47.10
11454;DHT22;5783;55.174;61.310;2022-09-09T16:49:29;21.20;47.10
11454;DHT22;5783;55.174;61.310;2022-09-09T16:52:00;21.20;47.10
11454;DHT22;5783;55.174;61.310;2022-09-09T16:54:29;21.20;47.10
11454;DHT22;5783;55.174;61.310;2022-09-09T16:56:59;21.20;47.30
11454;DHT22;5783;55.174;61.310;2022-09-09T16:59:28;21.20;47.10
11454;DHT22;5783;55.174;61.310;2022-09-09T17:01:58;21.20;47.10
11454;DHT22;5783;55.174;61.310;2022-09-09T17:04:28;21.20;47.10
11454;DHT22;5783;55.174;61.310;2022-09-09T17:06:57;21.20;47.10
11454;DHT22;5783;55.174;61.310;2022-09-09T17:09:27;21.20;47.10
11454;DHT22;5783;55.174;61.310;2022-09-09T17:11:58;21.20;47.10
11454;DHT22;5783;55.174;61.310;2022-09-09T17:14:27;21.20;47.10
11454;DHT22;5783;55.174;61.310;2022-09-09T17:16:57;21.10;47.10
11454;DHT22;5783;55.174;61.310;2022-09-09T17:19:27;21.10;47.10
11454;DHT22;5783;55.174;61.310;2022-09-09T17:21:56;21.10;47.20
11454;DHT22;5783;55.174;61.310;2022-09-09T17:24:27;21.10;47.20
11454;DHT22;5783;55.174;61.310;2022-09-09T17:26:57;21.10;46.90
11454;DHT22;5783;55.174;61.310;2022-09-09T17:29:26;21.20;46.90
11454;DHT22;5783;55.174;61.310;2022-09-09T17:31:55;21.20;46.90
11454;DHT22;5783;55.174;61.310;2022-09-09T17:34:24;21.20;46.90
11454;DHT22;5783;55.174;61.310;2022-09-09T17:36:54;21.20;46.90
11454;DHT22;5783;55.174;61.310;2022-09-09T17:39:23;21.20;46.90
11454;DHT22;5783;55.174;61.310;2022-09-09T17:41:52;21.20;46.90
11454;DHT22;5783;55.174;61.310;2022-09-09T17:44:22;21.20;46.90
11454;DHT22;5783;55.174;61.310;2022-09-09T17:46:51;21.30;47.00
11454;DHT22;5783;55.174;61.310;2022-09-09T17:49:22;21.20;46.90
11454;DHT22;5783;55.174;61.310;2022-09-09T17:51:51;21.20;46.90
11454;DHT22;5783;55.174;61.310;2022-09-09T17:54:21;21.20;46.80
11454;DHT22;5783;55.174;61.310;2022-09-09T17:56:52;21.20;46.90
11454;DHT22;5783;55.174;61.310;2022-09-09T17:59:21;21.20;46.90
11454;DHT22;5783;55.174;61.310;2022-09-09T18:01:51;21.20;46.80
11454;DHT22;5783;55.174;61.310;2022-09-09T18:04:21;21.20;46.90
11454;DHT22;5783;55.174;61.310;2022-09-09T18:06:52;21.20;47.00
11454;DHT22;5783;55.174;61.310;2022-09-09T18:09:24;21.20;47.20
11454;DHT22;5783;55.174;61.310;2022-09-09T18:11:56;21.20;47.10
11454;DHT22;5783;55.174;61.310;2022-09-09T18:14:29;21.20;47.10
11454;DHT22;5783;55.174;61.310;2022-09-09T18:16:59;21.20;47.20
11454;DHT22;5783;55.174;61.310;2022-09-09T18:19:31;21.20;47.30
11454;DHT22;5783;55.174;61.310;2022-09-09T18:22:03;21.20;47.30
11454;DHT22;5783;55.174;61.310;2022-09-09T18:24:34;21.20;47.40
11454;DHT22;5783;55.174;61.310;2022-09-09T18:27:04;21.10;47.30
11454;DHT22;5783;55.174;61.310;2022-09-09T18:29:33;21.10;47.40
11454;DHT22;5783;55.174;61.310;2022-09-09T18:32:02;21.10;47.40
11454;DHT22;5783;55.174;61.310;2022-09-09T18:34:31;21.10;47.40
11454;DHT22;5783;55.174;61.310;2022-09-09T18:37:01;21.10;47.40
11454;DHT22;5783;55.174;61.310;2022-09-09T18:39:30;21.10;47.40
11454;DHT22;5783;55.174;61.310;2022-09-09T18:42:01;21.10;47.40
11454;DHT22;5783;55.174;61.310;2022-09-09T18:44:32;21.10;47.40
11454;DHT22;5783;55.174;61.310;2022-09-09T18:47:02;21.10;47.40
11454;DHT22;5783;55.174;61.310;2022-09-09T18:49:33;21.20;47.50
11454;DHT22;5783;55.174;61.310;2022-09-09T18:52:04;21.20;47.50
11454;DHT22;5783;55.174;61.310;2022-09-09T18:54:33;21.20;47.50
11454;DHT22;5783;55.174;61.310;2022-09-09T18:57:03;21.20;47.50
11454;DHT22;5783;55.174;61.310;2022-09-09T18:59:32;21.20;47.60
11454;DHT22;5783;55.174;61.310;2022-09-09T19:02:02;21.30;47.60
11454;DHT22;5783;55.174;61.310;2022-09-09T19:04:31;21.30;47.50
11454;DHT22;5783;55.174;61.310;2022-09-09T19:07:00;21.30;47.50
11454;DHT22;5783;55.174;61.310;2022-09-09T19:09:31;21.30;47.60
11454;DHT22;5783;55.174;61.310;2022-09-09T19:12:02;21.30;47.40
11454;DHT22;5783;55.174;61.310;2022-09-09T19:14:33;21.30;47.30